Time;durP1;ratioP1;P1;durP2;ratioP2;P2;SDS_P1;SDS_P2;PMS_P1;PMS_P2;Temp;Humidity;BMP_temperature;BMP_pressure;BME280_temperature;BME280_humidity;BME280_pressure;Samples;Min_cycle;Max_cycle;Signal;HPM_P1;HPM_P2
2021/10/24 00:00:49;;;;;;;5.00;2.40;;;;;;;5.45;69.87;99514.23;112509;1190;76024;-24
2021/10/24 00:03:17;;;;;;;12.90;3.50;;;;;;;5.34;70.37;99511.52;112484;1192;73285;-21
2021/10/24 00:05:48;;;;;;;7.00;2.40;;;;;;;5.31;70.72;99506.65;112417;1193;61538;-22
2021/10/24 00:08:16;;;;;;;5.00;2.30;;;;;;;5.92;68.55;99505.16;112477;1190;61214;-22
2021/10/24 00:10:45;;;;;;;4.20;2.30;;;;;;;6.18;67.33;99509.14;112538;1190;74988;-22
2021/10/24 00:13:13;;;;;;;7.80;3.50;;;;;;;6.18;67.39;99507.92;112436;1190;75434;-24
2021/10/24 00:15:42;;;;;;;3.70;2.20;;;;;;;5.89;68.27;99510.88;112511;1184;73787;-22
2021/10/24 00:18:11;;;;;;;8.10;3.30;;;;;;;5.69;68.92;99506.04;112545;1190;60799;-22
2021/10/24 00:20:39;;;;;;;4.70;2.40;;;;;;;5.51;69.79;99506.48;112385;1190;61011;-22
2021/10/24 00:23:07;;;;;;;8.70;3.20;;;;;;;5.48;69.80;99509.92;112440;1193;75222;-22
2021/10/24 00:25:36;;;;;;;9.10;3.30;;;;;;;5.36;70.26;99509.19;112527;1190;75702;-24
2021/10/24 00:28:04;;;;;;;7.20;2.90;;;;;;;5.75;69.23;99511.62;112532;1190;73879;-23
2021/10/24 00:30:48;;;;;;;;;;;;;;;6.06;67.71;99515.28;112478;1190;60822;-20
2021/10/24 00:33:18;;;;;;;2.50;1.70;;;;;;;6.00;67.79;99518.39;112586;1190;60799;-21
2021/10/24 00:35:46;;;;;;;5.50;2.70;;;;;;;5.87;67.87;99521.44;112496;1190;74942;-23
2021/10/24 00:38:15;;;;;;;4.80;2.70;;;;;;;5.70;68.62;99521.52;112577;1190;75709;-25
2021/10/24 00:40:43;;;;;;;8.20;3.30;;;;;;;5.51;69.24;99519.40;112458;1190;74195;-26
2021/10/24 00:43:12;;;;;;;7.40;2.90;;;;;;;5.40;69.76;99521.88;112381;1193;60978;-25
2021/10/24 00:45:40;;;;;;;3.10;1.80;;;;;;;5.32;70.16;99525.38;112339;1190;60959;-23
2021/10/24 00:48:09;;;;;;;4.20;2.10;;;;;;;5.72;69.42;99530.00;112487;1190;75133;-23
2021/10/24 00:50:40;;;;;;;2.20;1.60;;;;;;;5.73;69.76;99513.79;112515;1190;74650;-22
2021/10/24 00:53:13;;;;;;;5.30;2.20;;;;;;;5.52;71.67;99532.27;112435;1193;72996;-25
2021/10/24 00:55:43;;;;;;;8.60;3.40;;;;;;;5.16;74.16;99533.77;112440;1190;60844;-26
2021/10/24 00:58:12;;;;;;;7.50;3.00;;;;;;;4.82;76.70;99543.58;112535;1190;61610;-24
2021/10/24 01:00:40;;;;;;;6.20;2.30;;;;;;;4.68;77.61;99541.86;112371;1190;75426;-25
2021/10/24 01:03:09;;;;;;;6.00;2.20;;;;;;;5.06;76.74;99542.39;112491;1193;75677;-24
2021/10/24 01:05:38;;;;;;;8.20;2.80;;;;;;;5.37;75.55;99548.04;112523;1190;73900;-24
2021/10/24 01:08:07;;;;;;;9.90;3.10;;;;;;;5.31;75.79;99548.48;112385;1190;60786;-23
2021/10/24 01:10:36;;;;;;;5.50;4.10;;;;;;;5.20;76.11;99552.00;112475;1192;60824;-22
2021/10/24 01:13:05;;;;;;;6.10;2.90;;;;;;;5.05;76.61;99551.70;112494;1190;75226;-23
2021/10/24 01:15:34;;;;;;;7.10;3.30;;;;;;;4.87;77.25;99550.92;112512;1190;76156;-22
2021/10/24 01:18:03;;;;;;;6.40;2.00;;;;;;;4.90;77.43;99551.79;112445;1193;72034;-23
2021/10/24 01:20:31;;;;;;;7.90;2.20;;;;;;;5.51;74.83;99548.66;112092;1193;61103;-23
2021/10/24 01:23:00;;;;;;;6.00;2.60;;;;;;;5.61;73.80;99547.63;112464;1190;60891;-23
2021/10/24 01:25:29;;;;;;;6.90;2.70;;;;;;;5.42;74.30;99547.80;112472;1193;75001;-22
2021/10/24 01:27:58;;;;;;;7.30;3.10;;;;;;;5.29;74.83;99548.41;112501;1190;75884;-22
2021/10/24 01:30:27;;;;;;;9.00;3.10;;;;;;;5.12;75.65;99553.06;112584;1190;72345;-22
2021/10/24 01:32:55;;;;;;;4.10;2.20;;;;;;;4.96;75.76;99549.59;112455;1192;61263;-24
2021/10/24 01:35:26;;;;;;;6.30;2.60;;;;;;;5.16;74.75;99544.63;112509;1190;60802;-24
2021/10/24 01:37:56;;;;;;;6.50;2.80;;;;;;;5.46;73.34;99543.62;112529;1190;75212;-23
2021/10/24 01:40:24;;;;;;;6.10;2.50;;;;;;;5.52;72.96;99543.99;112561;1190;75865;-22
2021/10/24 01:42:55;;;;;;;9.50;3.70;;;;;;;5.26;73.79;99552.56;112504;1193;74019;-22
2021/10/24 01:45:26;;;;;;;11.20;3.40;;;;;;;5.10;74.57;99550.45;112375;1190;60880;-22
2021/10/24 01:48:04;;;;;;;7.20;2.20;;;;;;;4.82;75.19;99548.57;112488;1190;61057;-22
2021/10/24 01:50:32;;;;;;;5.90;2.30;;;;;;;4.85;75.90;99554.10;112485;1190;75704;-24
2021/10/24 01:53:01;;;;;;;9.70;3.20;;;;;;;5.30;74.55;99559.41;112552;1190;75604;-22
2021/10/24 01:55:32;;;;;;;4.70;2.90;;;;;;;5.33;74.02;99562.20;112470;1191;73270;-22
2021/10/24 01:58:01;;;;;;;6.00;2.70;;;;;;;5.21;74.69;99563.67;112486;1190;60901;-22
2021/10/24 02:00:32;;;;;;;6.40;3.00;;;;;;;5.08;75.17;99561.75;112428;1190;60829;-23
2021/10/24 02:03:01;;;;;;;9.50;3.80;;;;;;;4.82;76.61;99566.98;112516;1190;75353;-22
2021/10/24 02:05:36;;;;;;;7.00;2.80;;;;;;;4.75;77.08;99564.73;112538;1190;74432;-23
2021/10/24 02:08:07;;;;;;;8.50;3.50;;;;;;;5.27;75.23;99569.55;112289;1191;73165;-24
2021/10/24 02:10:36;;;;;;;8.00;3.50;;;;;;;5.26;74.81;99561.34;112531;1193;60773;-23
2021/10/24 02:13:06;;;;;;;7.20;2.60;;;;;;;5.18;75.32;99571.55;112497;1190;61825;-24
2021/10/24 02:15:37;;;;;;;7.10;3.40;;;;;;;5.09;75.38;99566.34;112434;1191;75153;-24
2021/10/24 02:18:08;;;;;;;9.50;3.70;;;;;;;4.80;76.21;99570.68;112466;1190;74054;-23
2021/10/24 02:20:41;;;;;;;6.30;2.60;;;;;;;4.63;77.13;99572.88;112309;1193;73433;-23
2021/10/24 02:23:10;;;;;;;5.70;2.20;;;;;;;5.02;75.98;99581.27;112532;1190;60814;-23
2021/10/24 02:25:38;;;;;;;4.90;2.30;;;;;;;5.28;75.00;99585.87;112467;1190;60927;-23
2021/10/24 02:28:08;;;;;;;7.70;2.90;;;;;;;5.24;74.69;99590.16;112503;1190;75168;-23
2021/10/24 02:30:37;;;;;;;8.40;3.60;;;;;;;5.06;75.30;99597.09;112408;1191;74651;-22
2021/10/24 02:33:25;;;;;;;9.60;3.40;;;;;;;4.77;76.35;99594.02;112452;1190;73781;-23
2021/10/24 02:36:08;;;;;;;5.60;2.80;;;;;;;4.69;77.02;99596.85;112534;1190;61563;-22
2021/10/24 02:38:37;;;;;;;5.00;2.60;;;;;;;5.08;75.61;99593.73;112510;1190;62073;-24
2021/10/24 02:41:08;;;;;;;6.60;3.30;;;;;;;5.01;75.63;99594.58;112528;1190;74522;-24
2021/10/24 02:43:38;;;;;;;9.60;3.40;;;;;;;4.95;75.67;99600.38;112586;1190;75701;-23
2021/10/24 02:46:07;;;;;;;5.40;2.60;;;;;;;4.75;76.39;99604.09;112499;1190;74182;-24
2021/10/24 02:48:37;;;;;;;5.80;2.70;;;;;;;4.67;76.53;99612.25;112545;1190;60833;-24
2021/10/24 02:51:05;;;;;;;8.10;3.00;;;;;;;4.55;76.94;99612.48;112425;1190;61030;-24
2021/10/24 02:53:34;;;;;;;8.30;2.90;;;;;;;4.87;75.88;99620.38;112600;1190;73470;-24
2021/10/24 02:56:06;;;;;;;5.50;2.40;;;;;;;5.07;75.00;99617.20;112511;1190;74505;-24
2021/10/24 02:58:34;;;;;;;8.50;3.20;;;;;;;5.13;74.69;99623.10;112429;1193;74126;-24
2021/10/24 03:01:03;;;;;;;3.70;2.50;;;;;;;4.95;75.28;99623.64;112480;1190;60764;-22
2021/10/24 03:03:31;;;;;;;5.20;2.30;;;;;;;4.76;76.30;99626.08;112537;1190;60819;-22
2021/10/24 03:06:00;;;;;;;7.50;3.30;;;;;;;4.54;77.37;99628.82;112384;1177;75255;-22
2021/10/24 03:08:29;;;;;;;6.60;2.70;;;;;;;4.54;77.95;99626.80;112503;1190;75633;-22
2021/10/24 03:10:58;;;;;;;9.20;3.50;;;;;;;5.05;76.22;99628.13;112552;1190;73104;-22
2021/10/24 03:13:26;;;;;;;4.30;2.40;;;;;;;5.16;75.24;99626.88;112458;1190;61399;-21
2021/10/24 03:15:55;;;;;;;7.70;3.10;;;;;;;5.04;75.80;99636.23;112548;1190;60804;-22
2021/10/24 03:18:25;;;;;;;6.80;3.10;;;;;;;4.88;76.69;99645.64;112499;1192;73856;-22
2021/10/24 03:20:53;;;;;;;7.10;3.40;;;;;;;4.65;77.36;99647.42;112521;1190;72920;-22
2021/10/24 03:23:23;;;;;;;10.00;2.80;;;;;;;4.70;77.94;99656.27;112526;1190;71964;-22
2021/10/24 03:25:52;;;;;;;9.30;3.40;;;;;;;5.25;75.42;99652.11;112497;1192;61671;-22
2021/10/24 03:28:20;;;;;;;8.40;3.10;;;;;;;5.27;74.82;99651.64;112490;1190;60809;-22
2021/10/24 03:30:49;;;;;;;4.80;2.20;;;;;;;4.81;76.56;99657.16;112519;1190;73475;-22
2021/10/24 03:33:17;;;;;;;6.30;2.60;;;;;;;4.85;76.44;99662.81;112422;1190;75500;-22
2021/10/24 03:35:46;;;;;;;9.90;2.90;;;;;;;4.61;77.41;99663.39;112559;1190;72789;-22
2021/10/24 03:38:15;;;;;;;6.80;2.80;;;;;;;4.65;77.39;99669.42;112527;1190;61335;-22
2021/10/24 03:40:44;;;;;;;5.70;2.90;;;;;;;4.75;77.03;99667.77;112513;1190;60889;-22
2021/10/24 03:43:12;;;;;;;6.60;1.80;;;;;;;4.70;76.92;99669.02;112523;1193;75489;-22
2021/10/24 03:45:41;;;;;;;5.60;2.00;;;;;;;4.60;77.56;99676.55;112576;1190;74856;-22
2021/10/24 03:48:10;;;;;;;5.10;2.70;;;;;;;4.41;78.93;99682.90;112479;1175;72645;-22
2021/10/24 03:50:45;;;;;;;6.40;3.00;;;;;;;4.29;79.43;99679.52;112460;1193;61449;-22
2021/10/24 03:53:15;;;;;;;4.40;1.80;;;;;;;4.59;78.45;99683.30;112445;1190;61904;-24
2021/10/24 03:55:46;;;;;;;2.40;1.60;;;;;;;4.75;77.25;99687.55;112450;1191;75754;-25
2021/10/24 03:58:15;;;;;;;3.70;1.70;;;;;;;4.62;77.54;99700.20;112427;1193;75649;-23
2021/10/24 04:00:44;;;;;;;3.90;1.80;;;;;;;4.28;78.74;99695.73;112410;1193;74702;-24
2021/10/24 04:03:13;;;;;;;4.90;2.10;;;;;;;4.12;79.29;99694.84;112583;1190;60741;-24
2021/10/24 04:05:49;;;;;;;3.90;2.30;;;;;;;4.20;79.79;99703.61;112527;1190;60822;-23
2021/10/24 04:08:18;;;;;;;4.90;1.90;;;;;;;4.51;79.47;99702.76;112486;1193;74412;-24
2021/10/24 04:10:47;;;;;;;4.50;1.90;;;;;;;4.56;79.29;99708.88;112553;1190;74796;-22
2021/10/24 04:13:16;;;;;;;3.60;2.30;;;;;;;4.37;79.70;99706.15;112433;1192;73885;-22
2021/10/24 04:15:45;;;;;;;4.90;2.20;;;;;;;4.17;81.20;99712.88;112483;1190;60839;-23
2021/10/24 04:18:38;;;;;;;3.30;2.00;;;;;;;4.25;80.75;99711.98;112295;1190;61060;-24
2021/10/24 04:21:07;;;;;;;2.80;1.60;;;;;;;4.67;79.27;99723.36;112559;1190;73565;-24
2021/10/24 04:23:35;;;;;;;3.10;1.90;;;;;;;4.73;78.84;99726.34;112507;1190;74419;-23
2021/10/24 04:26:05;;;;;;;2.70;2.10;;;;;;;4.55;79.28;99726.44;112470;1190;73142;-22
2021/10/24 04:28:33;;;;;;;4.90;2.90;;;;;;;4.35;80.02;99726.88;112406;1190;61427;-21
2021/10/24 04:31:01;;;;;;;3.20;1.40;;;;;;;4.20;80.74;99728.52;112552;1190;60780;-21
2021/10/24 04:33:30;;;;;;;4.30;1.90;;;;;;;4.63;79.30;99735.23;112501;1193;75433;-21
2021/10/24 04:35:59;;;;;;;4.40;2.00;;;;;;;4.96;77.76;99735.08;112494;1190;74637;-21
2021/10/24 04:38:29;;;;;;;6.90;2.70;;;;;;;4.81;77.44;99735.45;112484;1192;73894;-21
2021/10/24 04:40:58;;;;;;;4.80;2.40;;;;;;;4.70;78.02;99738.34;112457;1193;60847;-21
2021/10/24 04:43:27;;;;;;;4.30;2.60;;;;;;;4.43;79.00;99731.99;112289;1190;60838;-21
2021/10/24 04:45:55;;;;;;;4.10;1.30;;;;;;;4.20;79.74;99736.09;112526;1190;74364;-21
2021/10/24 04:48:24;;;;;;;4.00;2.10;;;;;;;4.68;77.75;99742.39;112440;1191;74907;-21
2021/10/24 04:50:52;;;;;;;4.70;1.90;;;;;;;4.89;76.43;99746.77;112560;1190;73851;-21
2021/10/24 04:53:21;;;;;;;4.00;1.70;;;;;;;4.88;76.08;99748.02;112480;1190;60757;-21
2021/10/24 04:55:53;;;;;;;4.80;2.30;;;;;;;4.60;77.05;99759.75;112503;1190;60718;-21
2021/10/24 04:58:23;;;;;;;2.40;1.80;;;;;;;4.34;77.45;99755.08;112504;1190;73029;-21
2021/10/24 05:00:52;;;;;;;3.50;1.20;;;;;;;4.33;77.78;99768.53;112557;1184;75452;-22
2021/10/24 05:03:26;;;;;;;;;;;;;;;4.75;76.06;99768.38;112501;1190;73228;-21
2021/10/24 05:05:57;;;;;;;4.80;1.50;;;;;;;4.95;74.69;99771.06;112413;1190;60837;-21
2021/10/24 05:08:25;;;;;;;3.50;1.30;;;;;;;4.73;75.23;99770.73;112405;1192;60901;-21
2021/10/24 05:10:54;;;;;;;2.70;1.90;;;;;;;4.59;75.62;99773.06;112566;1189;75323;-21
2021/10/24 05:13:22;;;;;;;3.10;1.20;;;;;;;4.30;76.49;99772.95;112404;1190;74415;-21
2021/10/24 05:15:51;;;;;;;1.80;1.00;;;;;;;4.15;77.16;99774.63;112402;1193;74067;-21
2021/10/24 05:18:20;;;;;;;3.00;1.30;;;;;;;4.23;76.39;99766.73;112536;1190;62752;-21
2021/10/24 05:20:48;;;;;;;2.30;1.20;;;;;;;4.47;75.43;99766.90;112501;1190;60835;-21
2021/10/24 05:23:17;;;;;;;2.80;1.40;;;;;;;4.69;74.90;99777.44;112582;1190;74948;-21
2021/10/24 05:25:55;;;;;;;2.80;1.00;;;;;;;4.59;74.81;99774.09;112543;1190;75592;-21
2021/10/24 05:28:25;;;;;;;3.60;1.50;;;;;;;4.37;75.45;99777.97;112555;1190;73237;-21
2021/10/24 05:30:54;;;;;;;3.50;1.50;;;;;;;4.17;76.31;99784.02;112556;1189;60745;-21
2021/10/24 05:33:22;;;;;;;2.90;1.20;;;;;;;4.25;76.37;99794.67;112516;1190;61621;-22
2021/10/24 05:36:13;;;;;;;1.70;1.10;;;;;;;4.65;74.66;99797.58;112569;1189;74321;-22
2021/10/24 05:38:42;;;;;;;1.90;0.80;;;;;;;4.66;74.07;99797.54;112466;1190;74757;-22
2021/10/24 05:41:14;;;;;;;2.60;1.70;;;;;;;4.43;74.95;99804.70;112498;1192;73596;-22
2021/10/24 05:43:43;;;;;;;5.50;1.30;;;;;;;4.27;75.32;99805.95;112557;1190;62256;-22
2021/10/24 05:46:12;;;;;;;2.50;1.20;;;;;;;4.13;76.02;99805.13;112569;1190;60772;-22
2021/10/24 05:48:41;;;;;;;3.90;1.20;;;;;;;4.35;75.84;99816.41;112574;1190;74179;-22
2021/10/24 05:51:17;;;;;;;2.20;1.20;;;;;;;4.49;75.42;99816.84;112570;1190;74599;-22
2021/10/24 05:53:46;;;;;;;1.20;0.90;;;;;;;4.54;75.37;99820.75;112529;1190;74064;-22
2021/10/24 05:56:21;;;;;;;3.90;1.10;;;;;;;4.56;75.43;99821.84;112495;1190;60857;-22
2021/10/24 05:58:51;;;;;;;2.80;0.80;;;;;;;4.44;76.09;99826.86;112450;1192;61669;-22
2021/10/24 06:01:28;;;;;;;1.20;0.90;;;;;;;4.41;76.00;99827.86;112433;1193;74418;-23
2021/10/24 06:04:16;;;;;;;1.10;0.70;;;;;;;4.64;74.86;99827.34;112537;1190;74637;-21
2021/10/24 06:06:56;;;;;;;2.00;1.10;;;;;;;4.99;73.46;99833.70;112509;1190;73314;-21
2021/10/24 06:09:38;;;;;;;1.80;1.30;;;;;;;4.86;73.66;99836.91;112402;1189;60915;-22
2021/10/24 06:15:02;;;;;;;1.30;0.90;;;;;;;4.28;75.11;99842.83;112527;1190;72595;-22
2021/10/24 06:17:31;;;;;;;1.70;1.00;;;;;;;4.22;75.84;99844.65;112360;1191;75482;-22
2021/10/24 06:20:00;;;;;;;2.00;1.10;;;;;;;4.32;75.82;99851.11;112487;1190;73376;-22
2021/10/24 06:22:29;;;;;;;2.90;1.30;;;;;;;4.67;74.54;99858.86;112505;1190;61786;-23
2021/10/24 06:24:57;;;;;;;2.80;1.60;;;;;;;4.65;75.00;99863.64;112549;1190;61379;-22
2021/10/24 06:27:32;;;;;;;1.90;1.60;;;;;;;4.72;75.01;99872.29;112563;1190;74938;-22
2021/10/24 06:30:00;;;;;;;2.70;1.50;;;;;;;4.47;75.28;99865.27;112455;1190;75470;-22
2021/10/24 06:32:49;;;;;;;2.10;1.50;;;;;;;4.27;76.46;99876.41;112609;1190;73096;-22
2021/10/24 06:35:38;;;;;;;2.80;1.40;;;;;;;4.62;75.47;99872.86;112402;1190;60863;-22
2021/10/24 06:38:25;;;;;;;3.30;2.00;;;;;;;4.86;74.17;99882.48;112548;1190;60799;-24
2021/10/24 06:41:00;;;;;;;3.00;1.70;;;;;;;4.85;74.37;99877.70;112527;1190;72870;-24
2021/10/24 06:43:29;;;;;;;1.80;1.50;;;;;;;4.85;74.41;99887.67;112574;1190;75682;-22
2021/10/24 06:46:17;;;;;;;1.90;1.00;;;;;;;4.64;75.16;99889.63;112425;1192;72877;-22
2021/10/24 06:49:04;;;;;;;4.30;1.50;;;;;;;4.50;75.04;99892.95;112540;1190;60825;-22
2021/10/24 06:51:49;;;;;;;2.80;1.40;;;;;;;4.64;74.11;99899.75;112490;1190;60830;-22
2021/10/24 06:54:47;;;;;;;1.90;1.20;;;;;;;4.90;73.43;99904.34;112047;1194;74363;-23
2021/10/24 06:57:54;;;;;;;2.90;1.60;;;;;;;4.87;74.09;99910.46;112271;1190;75530;-22
2021/10/24 07:00:42;;;;;;;2.50;1.20;;;;;;;4.58;74.17;99911.70;112513;1190;73063;-22
2021/10/24 07:03:30;;;;;;;3.20;1.40;;;;;;;4.50;74.93;99915.16;112465;1190;60917;-22
2021/10/24 07:06:29;;;;;;;2.00;1.20;;;;;;;4.34;75.16;99916.00;112394;1190;60879;-22
2021/10/24 07:09:23;;;;;;;;;;;;;;;4.80;73.73;99921.10;112488;1193;74216;-23
2021/10/24 07:12:10;;;;;;;1.40;1.20;;;;;;;4.89;73.32;99923.27;112443;1178;75647;-22
2021/10/24 07:14:52;;;;;;;2.50;1.20;;;;;;;4.67;73.40;99920.11;112425;1193;73885;-24
2021/10/24 07:17:21;;;;;;;1.40;0.90;;;;;;;4.33;74.28;99921.53;112515;1190;61151;-24
2021/10/24 07:19:50;;;;;;;2.10;1.10;;;;;;;4.22;74.74;99918.73;112567;1190;60888;-22
2021/10/24 07:22:19;;;;;;;1.80;0.90;;;;;;;4.25;75.12;99931.50;112577;1190;73671;-22
2021/10/24 07:25:00;;;;;;;0.90;0.80;;;;;;;4.89;73.04;99929.83;112560;1190;73342;-21
2021/10/24 07:27:41;;;;;;;3.10;1.00;;;;;;;4.93;71.04;99921.92;112441;1190;73154;-24
2021/10/24 07:30:10;;;;;;;1.00;0.80;;;;;;;4.80;71.71;99936.60;112370;1190;61902;-24
2021/10/24 07:32:50;;;;;;;1.30;0.90;;;;;;;4.83;72.27;99943.52;112382;1192;60898;-23
2021/10/24 07:35:50;;;;;;;1.30;0.90;;;;;;;4.67;72.68;99952.47;112420;1190;74965;-24
2021/10/24 07:38:18;;;;;;;2.60;1.10;;;;;;;4.55;72.12;99949.36;112337;1193;75718;-22
2021/10/24 07:40:49;;;;;;;2.90;1.00;;;;;;;4.43;72.95;99952.76;112476;1190;73861;-23
2021/10/24 07:43:21;;;;;;;1.00;0.80;;;;;;;4.71;70.76;99937.33;112101;1190;60789;-24
2021/10/24 07:45:52;;;;;;;2.80;1.00;;;;;;;4.97;69.85;99947.73;112247;1190;60822;-24
2021/10/24 07:48:28;;;;;;;2.40;1.30;;;;;;;4.93;69.74;99944.45;112547;1190;75227;-25
2021/10/24 07:50:57;;;;;;;1.30;0.90;;;;;;;4.79;69.84;99943.86;112280;1191;74239;-26
2021/10/24 07:53:29;;;;;;;2.50;0.90;;;;;;;4.59;70.60;99955.88;112463;1193;74129;-25
2021/10/24 07:56:05;;;;;;;1.70;1.10;;;;;;;4.36;71.69;99957.67;112557;1189;60851;-23
2021/10/24 07:58:53;;;;;;;2.90;0.80;;;;;;;4.19;72.07;99945.65;112532;1190;60805;-22
2021/10/24 08:01:23;;;;;;;3.20;1.20;;;;;;;4.46;71.46;99958.83;112579;1190;73468;-23
2021/10/24 08:03:53;;;;;;;2.00;0.70;;;;;;;4.55;70.95;99958.13;112550;1190;76154;-22
2021/10/24 08:06:31;;;;;;;3.50;1.00;;;;;;;4.65;70.73;99965.58;112538;1190;73974;-23
2021/10/24 08:09:02;;;;;;;1.70;0.90;;;;;;;4.45;71.24;99967.64;112253;1193;61189;-22
2021/10/24 08:11:30;;;;;;;2.10;1.20;;;;;;;4.31;71.31;99970.45;112309;1190;61702;-22
2021/10/24 08:13:59;;;;;;;2.10;1.00;;;;;;;4.17;71.56;99976.67;112489;1193;74500;-22
2021/10/24 08:16:29;;;;;;;1.90;0.90;;;;;;;4.10;71.50;99985.02;112525;1190;75713;-22
2021/10/24 08:18:57;;;;;;;2.50;1.10;;;;;;;4.23;71.65;99990.51;112489;1193;74099;-23
2021/10/24 08:21:35;;;;;;;2.00;1.40;;;;;;;4.53;69.80;99983.48;112554;1190;60780;-22
2021/10/24 08:24:05;;;;;;;2.30;0.90;;;;;;;4.71;69.14;99990.65;112506;1192;61847;-22
2021/10/24 08:26:36;;;;;;;1.50;0.80;;;;;;;4.79;68.75;99999.27;112402;1184;75523;-22
2021/10/24 08:29:05;;;;;;;1.20;0.70;;;;;;;4.67;68.26;99994.59;112222;1193;75740;-22
2021/10/24 08:32:10;;;;;;;1.10;0.70;;;;;;;4.49;68.46;99999.80;112279;1190;72270;-22
2021/10/24 08:34:41;;;;;;;1.40;0.80;;;;;;;4.48;69.04;99999.84;112372;1191;60829;-22
2021/10/24 08:37:11;;;;;;;1.10;0.70;;;;;;;4.54;68.85;100002.00;112581;1189;61432;-22
2021/10/24 08:39:39;;;;;;;2.50;0.90;;;;;;;4.44;67.80;100003.95;112545;1190;74134;-22
2021/10/24 08:42:08;;;;;;;2.90;1.00;;;;;;;4.45;68.04;100011.98;112528;1190;75490;-22
2021/10/24 08:44:36;;;;;;;1.20;0.70;;;;;;;4.70;66.45;100012.39;112577;1190;73035;-22
2021/10/24 08:47:04;;;;;;;1.10;0.80;;;;;;;4.98;65.00;99999.50;112507;1190;60764;-22
2021/10/24 08:49:33;;;;;;;1.90;0.70;;;;;;;5.22;65.11;100003.62;112520;1193;61031;-22
2021/10/24 08:52:02;;;;;;;1.20;0.70;;;;;;;5.29;64.45;99997.80;112518;1190;75163;-22
2021/10/24 08:54:34;;;;;;;1.10;0.80;;;;;;;5.22;64.18;100002.42;112487;1190;75650;-22
2021/10/24 08:57:03;;;;;;;1.00;0.60;;;;;;;5.06;64.27;100010.35;112543;1190;74627;-22
2021/10/24 08:59:32;;;;;;;1.20;0.70;;;;;;;5.38;64.49;100013.77;112479;1190;60793;-22
2021/10/24 09:02:02;;;;;;;0.90;0.60;;;;;;;5.34;63.76;100008.98;112499;1190;60882;-22
2021/10/24 09:04:30;;;;;;;1.80;0.80;;;;;;;5.38;63.91;100020.14;112226;1192;74198;-21
2021/10/24 09:07:00;;;;;;;2.50;0.80;;;;;;;5.15;62.75;100008.38;112526;1191;75857;-22
2021/10/24 09:09:31;;;;;;;0.80;0.50;;;;;;;5.05;62.73;100018.13;112408;1192;73003;-23
2021/10/24 09:12:00;;;;;;;1.40;0.70;;;;;;;5.01;63.01;100020.52;112530;1190;61019;-23
2021/10/24 09:14:53;;;;;;;1.10;0.70;;;;;;;4.88;63.50;100017.14;112463;1193;61461;-22
2021/10/24 09:17:22;;;;;;;2.10;0.90;;;;;;;4.79;64.66;100027.11;112509;1192;73919;-23
2021/10/24 09:20:00;;;;;;;1.70;0.90;;;;;;;4.61;65.48;100032.35;112545;1191;74612;-23
2021/10/24 09:22:31;;;;;;;0.70;0.60;;;;;;;4.44;66.58;100030.29;112212;1193;74417;-23
2021/10/24 09:25:00;;;;;;;1.40;0.90;;;;;;;4.52;66.45;100035.08;112459;1193;60826;-23
2021/10/24 09:27:30;;;;;;;2.30;0.90;;;;;;;4.61;65.26;100035.79;112495;1190;61575;-24
2021/10/24 09:30:13;;;;;;;1.20;0.70;;;;;;;4.85;64.16;100044.23;112472;1192;75101;-23
2021/10/24 09:32:46;;;;;;;1.60;0.80;;;;;;;5.03;65.14;100048.15;112534;1189;75585;-23
2021/10/24 09:35:15;;;;;;;1.10;0.90;;;;;;;4.90;65.09;100039.05;112454;1193;73476;-22
2021/10/24 09:38:04;;;;;;;1.00;0.70;;;;;;;4.73;66.33;100049.73;112434;1191;60884;-23
2021/10/24 09:40:50;;;;;;;1.20;0.70;;;;;;;4.78;66.01;100042.48;112455;1190;60877;-22
2021/10/24 09:43:20;;;;;;;0.70;0.60;;;;;;;4.61;66.49;100041.62;112500;1193;75341;-22
2021/10/24 09:46:09;;;;;;;3.30;0.90;;;;;;;4.71;66.63;100048.61;112497;1190;73592;-22
2021/10/24 09:48:44;;;;;;;0.90;0.70;;;;;;;4.77;65.29;100050.92;112527;1191;73226;-22
2021/10/24 09:51:13;;;;;;;;;;;;;;;4.95;63.66;100042.14;112494;1190;60866;-22
2021/10/24 09:53:46;;;;;;;1.90;0.80;;;;;;;5.22;64.01;100056.83;112517;1190;60806;-22
2021/10/24 09:56:15;;;;;;;0.90;0.70;;;;;;;5.10;61.67;100044.23;112476;1190;73966;-22
2021/10/24 09:58:48;;;;;;;2.40;1.10;;;;;;;4.94;61.16;100058.33;112410;1184;74233;-24
2021/10/24 10:01:18;;;;;;;1.50;0.90;;;;;;;4.97;62.36;100053.56;112179;1191;73032;-22
2021/10/24 10:03:48;;;;;;;1.20;0.90;;;;;;;4.93;64.40;100050.48;112487;1193;60917;-22
2021/10/24 10:06:20;;;;;;;2.10;0.90;;;;;;;4.74;65.05;100050.59;112470;1190;60845;-22
2021/10/24 10:08:49;;;;;;;1.20;0.80;;;;;;;4.63;64.76;100059.09;112467;1193;74975;-22
2021/10/24 10:11:30;;;;;;;1.20;0.90;;;;;;;4.60;63.85;100052.50;112526;1189;73708;-23
2021/10/24 10:14:28;;;;;;;2.30;0.50;;;;;;;4.71;63.21;100054.27;112435;1190;73102;-22
2021/10/24 10:17:01;;;;;;;1.30;0.80;;;;;;;5.13;61.90;100060.13;112380;1190;60812;-22
2021/10/24 10:19:40;;;;;;;0.50;0.30;;;;;;;5.52;60.10;100058.12;112377;1191;61180;-22
2021/10/24 10:22:27;;;;;;;0.80;0.70;;;;;;;5.55;59.54;100066.41;112261;1180;74383;-22
2021/10/24 10:25:01;;;;;;;0.90;0.80;;;;;;;5.40;60.57;100061.02;112502;1192;74886;-22
2021/10/24 10:27:36;;;;;;;0.80;0.70;;;;;;;5.03;61.26;100044.20;112233;1190;73897;-25
2021/10/24 10:30:26;;;;;;;2.70;0.80;;;;;;;4.95;63.12;100065.54;112401;1192;60815;-24
2021/10/24 10:32:55;;;;;;;2.40;0.80;;;;;;;4.95;63.37;100066.20;112531;1190;60828;-22
2021/10/24 10:35:25;;;;;;;1.00;0.70;;;;;;;5.12;63.32;100075.83;112564;1190;75183;-24
2021/10/24 10:38:04;;;;;;;1.00;0.70;;;;;;;5.39;62.78;100077.29;112365;1190;75753;-24
2021/10/24 10:40:40;;;;;;;1.80;1.00;;;;;;;5.40;60.91;100089.79;112389;1193;74035;-23
2021/10/24 10:43:14;;;;;;;1.30;0.70;;;;;;;5.79;60.24;100084.13;112481;1193;60812;-22
2021/10/24 10:45:46;;;;;;;1.20;0.70;;;;;;;5.95;58.32;100079.30;112294;1192;61413;-32
2021/10/24 10:48:40;;;;;;;1.30;1.00;;;;;;;5.72;59.01;100071.35;112420;1191;74939;-23
2021/10/24 10:51:16;;;;;;;3.40;0.90;;;;;;;5.32;59.86;100072.38;112560;1190;76470;-22
2021/10/24 10:53:45;;;;;;;1.10;0.80;;;;;;;5.25;60.27;100061.20;112478;1193;75500;-22
2021/10/24 10:56:20;;;;;;;1.00;0.80;;;;;;;5.52;60.46;100057.42;112522;1190;60816;-22
2021/10/24 10:58:58;;;;;;;1.00;0.70;;;;;;;5.59;60.43;100073.30;112244;1190;60864;-22
2021/10/24 11:01:38;;;;;;;1.40;0.70;;;;;;;5.74;60.21;100072.45;112493;1191;73958;-22
2021/10/24 11:04:20;;;;;;;3.00;0.90;;;;;;;5.59;59.85;100086.56;112350;1192;74868;-22
2021/10/24 11:06:57;;;;;;;1.00;0.60;;;;;;;5.91;58.03;100079.98;112319;1193;74020;-22
2021/10/24 11:09:40;;;;;;;0.60;0.60;;;;;;;6.16;56.18;100071.95;112349;1190;60872;-22
2021/10/24 11:12:11;;;;;;;0.70;0.40;;;;;;;6.22;55.14;100074.77;112387;1191;60809;-22
2021/10/24 11:14:44;;;;;;;1.30;0.90;;;;;;;6.09;54.74;100080.38;112383;1190;75621;-22
2021/10/24 11:17:31;;;;;;;6.20;0.80;;;;;;;6.11;55.33;100084.46;112263;1193;74687;-21
2021/10/24 11:20:39;;;;;;;1.90;0.90;;;;;;;5.82;57.09;100069.52;112421;1190;73864;-25
2021/10/24 11:23:13;;;;;;;1.30;0.70;;;;;;;5.59;57.84;100082.27;111829;1195;60919;-24
2021/10/24 11:25:50;;;;;;;3.10;0.90;;;;;;;5.32;59.17;100081.86;111704;1195;61432;-23
2021/10/24 11:28:24;;;;;;;1.60;1.00;;;;;;;5.63;58.52;100090.50;111753;1196;75094;-22
2021/10/24 11:31:06;;;;;;;3.60;1.00;;;;;;;6.27;58.19;100097.85;111704;1197;74300;-22
2021/10/24 11:33:48;;;;;;;2.30;0.60;;;;;;;6.36;55.90;100084.84;111791;1197;74153;-22
2021/10/24 11:36:24;;;;;;;2.90;0.90;;;;;;;5.91;56.10;100093.23;111754;1196;60952;-21
2021/10/24 11:39:00;;;;;;;1.90;0.80;;;;;;;5.68;56.44;100089.46;111774;1197;61916;-22
2021/10/24 11:41:28;;;;;;;4.20;1.10;;;;;;;5.40;58.05;100094.47;111905;1195;74243;-22
2021/10/24 11:44:07;;;;;;;1.60;0.90;;;;;;;5.42;58.41;100099.00;111789;1197;75728;-22
2021/10/24 11:46:37;;;;;;;1.90;0.90;;;;;;;5.46;58.93;100102.97;111765;1197;71534;-22
2021/10/24 11:49:06;;;;;;;1.60;0.80;;;;;;;5.76;58.45;100099.61;111847;1197;60945;-22
2021/10/24 11:51:34;;;;;;;1.50;0.80;;;;;;;5.73;56.96;100099.38;111933;1196;60797;-22
2021/10/24 11:54:07;;;;;;;2.90;1.20;;;;;;;5.74;55.37;100100.54;111947;1195;74168;-22
2021/10/24 11:56:51;;;;;;;1.10;0.60;;;;;;;5.99;55.17;100107.40;111806;1196;75020;-22
2021/10/24 11:59:37;;;;;;;1.40;0.70;;;;;;;5.93;54.69;100098.86;112447;1191;74109;-22
2021/10/24 12:02:07;;;;;;;0.80;0.70;;;;;;;5.75;55.32;100093.10;112363;1191;61403;-23